createdAt,value
2022-09-20T00:01:08.517Z,96787.97
2022-09-20T00:03:39.089Z,96782.88
2022-09-20T00:06:06.793Z,96789.38
2022-09-20T00:08:32.603Z,96788.75
2022-09-20T00:11:06.959Z,96792.00
2022-09-20T00:13:34.450Z,96790.97
2022-09-20T00:16:05.119Z,96790.38
2022-09-20T00:18:30.973Z,96785.13
2022-09-20T00:20:56.778Z,96783.72
2022-09-20T00:23:22.661Z,96782.50
2022-09-20T00:26:00.180Z,96788.16
2022-09-20T00:28:27.239Z,96793.59
2022-09-20T00:30:54.342Z,96797.44
2022-09-20T00:33:21.035Z,96794.63
2022-09-20T00:35:47.219Z,96799.84
2022-09-20T00:38:13.938Z,96795.84
2022-09-20T00:40:42.177Z,96792.41
2022-09-20T00:43:14.949Z,96793.41
2022-09-20T00:45:43.698Z,96790.78
2022-09-20T00:48:28.554Z,96792.19
2022-09-20T00:51:09.060Z,96789.38
2022-09-20T00:53:43.024Z,96788.16
2022-09-20T00:56:17.027Z,96785.75
2022-09-20T00:59:03.700Z,96781.50
2022-09-20T01:01:31.135Z,96788.56
2022-09-20T01:03:59.189Z,96788.16
2022-09-20T01:06:25.038Z,96791.19
2022-09-20T01:08:53.143Z,96795.44
2022-09-20T01:11:19.147Z,96789.56
2022-09-20T01:13:44.929Z,96787.56
2022-09-20T01:16:13.236Z,96787.97
2022-09-20T01:18:40.537Z,96794.63
2022-09-20T01:21:08.623Z,96795.22
2022-09-20T01:24:04.424Z,96802.09
2022-09-20T01:26:53.773Z,96791.59
2022-09-20T01:29:48.259Z,96781.91
2022-09-20T01:32:20.085Z,96788.38
2022-09-20T01:34:50.369Z,96789.78
2022-09-20T01:37:39.070Z,96794.63
2022-09-20T01:40:12.400Z,96796.44
2022-09-20T01:42:49.318Z,96793.63
2022-09-20T01:45:27.496Z,96798.88
2022-09-20T01:48:12.873Z,96801.69
2022-09-20T01:51:09.149Z,96790.00
2022-09-20T01:53:52.958Z,96796.03
2022-09-20T01:56:55.335Z,96790.78
2022-09-20T01:59:55.169Z,96800.28
2022-09-20T02:02:49.034Z,96806.94
2022-09-20T02:05:30.183Z,96797.66
2022-09-20T02:08:14.559Z,96798.66
2022-09-20T02:10:49.204Z,96798.25
2022-09-20T02:13:31.437Z,96798.25
2022-09-20T02:16:32.809Z,96797.44
2022-09-20T02:19:30.200Z,96795.03
2022-09-20T02:22:18.478Z,96793.41
2022-09-20T02:24:55.082Z,96793.22
2022-09-20T02:27:28.937Z,96787.56
2022-09-20T02:30:07.824Z,96792.81
2022-09-20T02:32:42.323Z,96789.19
2022-09-20T02:35:17.252Z,96793.19
2022-09-20T02:37:59.298Z,96792.59
2022-09-20T02:40:25.083Z,96793.19
2022-09-20T02:43:08.085Z,96794.00
2022-09-20T02:46:02.212Z,96800.88
2022-09-20T02:48:44.849Z,96798.03
2022-09-20T02:51:13.672Z,96800.88
2022-09-20T02:53:44.516Z,96793.00
2022-09-20T02:56:29.149Z,96798.88
2022-09-20T02:59:19.812Z,96791.38
2022-09-20T03:02:01.381Z,96795.81
2022-09-20T03:04:56.502Z,96793.19
2022-09-20T03:07:22.267Z,96803.91
2022-09-20T03:10:13.668Z,96802.50
2022-09-20T03:12:59.114Z,96797.66
2022-09-20T03:15:27.959Z,96794.00
2022-09-20T03:18:10.192Z,96786.34
2022-09-20T03:21:04.007Z,96794.22
2022-09-20T03:24:00.612Z,96800.28
2022-09-20T03:26:52.898Z,96797.25
2022-09-20T03:29:30.945Z,96792.38
2022-09-20T03:32:27.488Z,96792.19
2022-09-20T03:35:26.842Z,96792.59
2022-09-20T03:38:07.982Z,96785.75
2022-09-20T03:40:59.667Z,96792.00
2022-09-20T03:43:46.088Z,96793.81
2022-09-20T03:46:45.913Z,96786.75
2022-09-20T03:49:32.824Z,96787.34
2022-09-20T03:52:21.852Z,96788.56
2022-09-20T03:55:09.620Z,96791.56
2022-09-20T03:57:44.498Z,96788.16
2022-09-20T04:00:52.425Z,96796.81
2022-09-20T04:03:35.534Z,96793.38
2022-09-20T04:06:08.700Z,96788.94
2022-09-20T04:09:08.126Z,96785.72
2022-09-20T04:12:01.568Z,96784.31
2022-09-20T04:14:49.993Z,96787.53
2022-09-20T04:17:26.747Z,96785.34
2022-09-20T04:20:02.197Z,96789.75
2022-09-20T04:22:29.194Z,96793.00
2022-09-20T04:24:55.893Z,96798.63
2022-09-20T04:28:04.272Z,96799.03
2022-09-20T04:30:36.832Z,96805.50
2022-09-20T04:33:34.198Z,96806.06
2022-09-20T04:36:30.919Z,96801.84
2022-09-20T04:39:01.327Z,96803.47
2022-09-20T04:41:50.510Z,96807.13
2022-09-20T04:44:51.717Z,96814.34
2022-09-20T04:47:36.228Z,96821.22
2022-09-20T04:50:35.664Z,96814.56
2022-09-20T04:53:40.179Z,96811.34
2022-09-20T04:56:47.000Z,96812.13
2022-09-20T04:59:31.432Z,96819.81
2022-09-20T05:02:21.627Z,96817.16
2022-09-20T05:05:25.096Z,96823.41
2022-09-20T05:08:00.190Z,96823.63
2022-09-20T05:10:47.740Z,96820.59
2022-09-20T05:13:29.089Z,96825.06
2022-09-20T05:16:05.534Z,96820.22
2022-09-20T05:19:02.184Z,96824.66
2022-09-20T05:21:49.334Z,96829.28
2022-09-20T05:24:44.589Z,96831.91
2022-09-20T05:27:13.484Z,96825.47
2022-09-20T05:30:04.872Z,96836.31
2022-09-20T05:32:40.508Z,96836.34
2022-09-20T05:35:20.768Z,96836.94
2022-09-20T05:38:12.863Z,96833.31
2022-09-20T05:40:53.617Z,96836.28
2022-09-20T05:43:29.883Z,96835.13
2022-09-20T05:46:05.089Z,96837.56
2022-09-20T05:48:38.199Z,96839.97
2022-09-20T05:51:25.283Z,96844.22
2022-09-20T05:53:53.763Z,96841.38
2022-09-20T05:56:22.734Z,96845.25
2022-09-20T05:59:11.700Z,96833.75
2022-09-20T06:01:50.226Z,96842.66
2022-09-20T06:04:40.308Z,96845.28
2022-09-20T06:07:24.011Z,96844.25
2022-09-20T06:10:30.306Z,96854.97
2022-09-20T06:13:02.138Z,96849.09
2022-09-20T06:15:30.827Z,96850.31
2022-09-20T06:18:09.127Z,96849.31
2022-09-20T06:21:12.596Z,96857.56
2022-09-20T06:23:38.584Z,96848.91
2022-09-20T06:26:16.573Z,96861.59
2022-09-20T06:28:47.997Z,96857.56
2022-09-20T06:31:16.526Z,96853.97
2022-09-20T06:33:54.152Z,96861.03
2022-09-20T06:36:47.682Z,96862.19
2022-09-20T06:39:35.185Z,96865.63
2022-09-20T06:42:01.294Z,96866.28
2022-09-20T06:44:27.087Z,96875.34
2022-09-20T06:46:55.742Z,96869.28
2022-09-20T06:49:23.328Z,96879.41
2022-09-20T06:51:51.946Z,96870.13
2022-09-20T06:54:20.951Z,96874.16
2022-09-20T06:56:48.958Z,96874.34
2022-09-20T06:59:14.768Z,96880.41
2022-09-20T07:01:41.565Z,96881.22
2022-09-20T07:04:08.942Z,96885.66
2022-09-20T07:06:35.172Z,96886.69
2022-09-20T07:09:01.508Z,96881.66
2022-09-20T07:11:27.363Z,96886.69
2022-09-20T07:13:55.327Z,96880.66
2022-09-20T07:16:21.536Z,96886.31
2022-09-20T07:18:48.145Z,96886.47
2022-09-20T07:21:16.543Z,96891.72
2022-09-20T07:23:45.047Z,96887.88
2022-09-20T07:26:23.003Z,96891.97
2022-09-20T07:28:49.736Z,96899.66
2022-09-20T07:31:20.458Z,96898.25
2022-09-20T07:33:46.566Z,96896.22
2022-09-20T07:36:12.677Z,96895.81
2022-09-20T07:38:39.979Z,96898.44
2022-09-20T07:41:06.213Z,96905.72
2022-09-20T07:43:32.795Z,96908.50
2022-09-20T07:45:59.435Z,96906.91
2022-09-20T07:48:28.637Z,96903.44
2022-09-20T07:51:04.668Z,96911.47
2022-09-20T07:53:32.568Z,96904.13
2022-09-20T07:56:04.222Z,96911.63
2022-09-20T07:58:32.028Z,96914.38
2022-09-20T08:01:04.342Z,96912.75
2022-09-20T08:03:32.223Z,96918.81
2022-09-20T08:06:03.402Z,96925.66
2022-09-20T08:08:32.598Z,96928.50
2022-09-20T08:11:07.756Z,96928.69
2022-09-20T08:16:23.561Z,96937.31
2022-09-20T08:18:58.398Z,96943.94
2022-09-20T08:21:33.914Z,96938.69
2022-09-20T08:23:59.652Z,96937.41
2022-09-20T08:26:26.294Z,96935.47
2022-09-20T08:28:57.265Z,96940.06
2022-09-20T08:31:25.737Z,96937.66
2022-09-20T08:33:52.388Z,96934.84
2022-09-20T08:36:21.346Z,96940.41
2022-09-20T08:41:38.447Z,96957.66
2022-09-20T08:44:16.321Z,96938.59
2022-09-20T08:46:48.012Z,96940.69
2022-09-20T08:49:26.969Z,96943.84
2022-09-20T08:51:57.193Z,96946.56
2022-09-20T08:54:24.142Z,96948.53
2022-09-20T08:56:51.044Z,96945.25
2022-09-20T08:59:21.673Z,96949.41
2022-09-20T09:01:49.083Z,96949.06
2022-09-20T09:04:18.127Z,96944.47
2022-09-20T09:06:45.001Z,96954.44
2022-09-20T09:09:25.068Z,96950.56
2022-09-20T09:11:52.436Z,96949.44
2022-09-20T09:14:48.644Z,96959.13
2022-09-20T09:17:17.571Z,96956.84
2022-09-20T09:19:46.239Z,96957.44
2022-09-20T09:22:17.946Z,96956.19
2022-09-20T09:24:43.688Z,96954.88
2022-09-20T09:27:18.656Z,96956.00
2022-09-20T09:29:53.137Z,96956.13
2022-09-20T09:32:30.501Z,96954.94
2022-09-20T09:35:21.508Z,96957.66
2022-09-20T09:37:54.736Z,96957.59
2022-09-20T09:40:20.922Z,96972.16
2022-09-20T09:42:58.989Z,96962.34
2022-09-20T09:45:29.798Z,96970.19
2022-09-20T09:47:57.351Z,96968.13
2022-09-20T09:50:30.361Z,96961.38
2022-09-20T09:53:09.271Z,96961.16
2022-09-20T09:56:00.959Z,96965.50
2022-09-20T09:59:01.870Z,96960.06
2022-09-20T10:01:45.967Z,96963.19
2022-09-20T10:04:35.012Z,96965.16
2022-09-20T10:07:12.967Z,96954.72
2022-09-20T10:09:47.711Z,96961.72
2022-09-20T10:12:19.965Z,96961.50
2022-09-20T10:15:23.396Z,96953.44
2022-09-20T10:18:16.454Z,96963.91
2022-09-20T10:21:04.626Z,96964.91
2022-09-20T10:24:03.587Z,96961.88
2022-09-20T10:26:52.836Z,96967.97
2022-09-20T10:29:40.417Z,96962.06
2022-09-20T10:32:06.324Z,96962.00
2022-09-20T10:34:56.792Z,96955.69
2022-09-20T10:38:10.320Z,96963.75
2022-09-20T10:41:22.608Z,96961.84
2022-09-20T10:44:07.253Z,96949.31
2022-09-20T10:47:10.804Z,96951.59
2022-09-20T10:50:12.685Z,96949.31
2022-09-20T10:52:56.106Z,96953.56
2022-09-20T10:55:26.346Z,96956.41
2022-09-20T10:58:26.128Z,96957.88
2022-09-20T11:00:54.820Z,96963.91
2022-09-20T11:03:23.696Z,96959.47
2022-09-20T11:06:20.622Z,96959.59
2022-09-20T11:08:53.452Z,96953.22
2022-09-20T11:11:24.912Z,96957.22
2022-09-20T11:13:53.335Z,96960.53
2022-09-20T11:16:27.405Z,96959.91
2022-09-20T11:19:04.993Z,96963.78
2022-09-20T11:21:37.653Z,96969.97
2022-09-20T11:24:12.265Z,96968.63
2022-09-20T11:26:45.495Z,96967.66
2022-09-20T11:29:35.372Z,96972.22
2022-09-20T11:32:20.372Z,96973.88
2022-09-20T11:34:56.380Z,96979.25
2022-09-20T11:37:32.595Z,96974.19
2022-09-20T11:40:03.911Z,96973.25
2022-09-20T11:42:35.729Z,96976.66
2022-09-20T11:45:02.742Z,96976.72
2022-09-20T11:47:54.365Z,96971.63
2022-09-20T11:50:38.958Z,96972.94
2022-09-20T11:53:26.393Z,96974.47
2022-09-20T11:56:20.234Z,96969.97
2022-09-20T11:58:52.052Z,96967.66
2022-09-20T12:01:38.502Z,96976.59
2022-09-20T12:04:33.602Z,96966.81
2022-09-20T12:07:11.331Z,96965.59
2022-09-20T12:09:42.067Z,96968.50
2022-09-20T12:12:14.430Z,96970.28
2022-09-20T12:14:41.523Z,96966.13
2022-09-20T12:17:44.567Z,96959.69
2022-09-20T12:20:41.708Z,96949.44
2022-09-20T12:23:38.359Z,96961.03
2022-09-20T12:26:22.336Z,96962.84
2022-09-20T12:28:50.906Z,96967.72
2022-09-20T12:31:28.378Z,96961.88
2022-09-20T12:33:56.216Z,96969.38
2022-09-20T12:36:22.902Z,96967.53
2022-09-20T12:38:56.961Z,96974.28
2022-09-20T12:41:28.585Z,96964.81
2022-09-20T12:44:02.001Z,96965.75
2022-09-20T12:46:36.126Z,96966.47
2022-09-20T12:49:43.514Z,96966.38
2022-09-20T12:52:51.275Z,96960.50
2022-09-20T12:55:32.902Z,96959.28
2022-09-20T12:58:13.622Z,96963.88
2022-09-20T13:01:00.304Z,96962.00
2022-09-20T13:03:31.282Z,96959.81
2022-09-20T13:06:06.160Z,96957.41
2022-09-20T13:08:35.926Z,96955.13
2022-09-20T13:11:20.230Z,96959.97
2022-09-20T13:13:48.975Z,96955.59
2022-09-20T13:16:21.869Z,96954.00
2022-09-20T13:19:04.445Z,96960.31
2022-09-20T13:21:33.062Z,96957.47
2022-09-20T13:24:00.648Z,96952.31
2022-09-20T13:26:33.289Z,96949.66
2022-09-20T13:29:00.468Z,96947.25
2022-09-20T13:31:31.910Z,96944.84
2022-09-20T13:34:18.186Z,96955.31
2022-09-20T13:36:45.124Z,96947.94
2022-09-20T13:39:28.496Z,96950.66
2022-09-20T13:42:01.405Z,96953.06
2022-09-20T13:44:32.776Z,96951.16
2022-09-20T13:46:58.626Z,96946.50
2022-09-20T13:49:24.798Z,96952.50
2022-09-20T13:51:51.352Z,96948.28
2022-09-20T13:54:27.695Z,96946.31
2022-09-20T13:57:12.495Z,96937.59
2022-09-20T13:59:45.874Z,96945.56
2022-09-20T14:02:30.369Z,96936.81
2022-09-20T14:04:59.857Z,96940.59
2022-09-20T14:07:27.495Z,96942.13
2022-09-20T14:09:54.576Z,96950.78
2022-09-20T14:12:23.254Z,96948.03
2022-09-20T14:14:50.327Z,96949.97
2022-09-20T14:17:19.632Z,96937.63
2022-09-20T14:19:48.815Z,96946.34
2022-09-20T14:22:32.762Z,96941.31
2022-09-20T14:25:02.021Z,96943.84
2022-09-20T14:27:30.367Z,96938.91
2022-09-20T14:29:56.898Z,96951.13
2022-09-20T14:32:50.059Z,96945.25
2022-09-20T14:35:18.530Z,96946.56
2022-09-20T14:37:56.385Z,96951.84
2022-09-20T14:40:26.502Z,96949.19
2022-09-20T14:42:56.604Z,96951.97
2022-09-20T14:45:34.204Z,96949.44
2022-09-20T14:48:22.821Z,96956.31
2022-09-20T14:51:26.933Z,96957.38
2022-09-20T14:54:04.824Z,96957.69
2022-09-20T14:56:43.646Z,96953.44
2022-09-20T14:59:26.621Z,96958.50
2022-09-20T15:02:03.279Z,96963.81
2022-09-20T15:04:32.001Z,96965.66
2022-09-20T15:07:02.856Z,96964.50
2022-09-20T15:09:29.313Z,96960.00
2022-09-20T15:12:05.979Z,96960.47
2022-09-20T15:14:37.213Z,96962.31
2022-09-20T15:17:04.340Z,96963.91
2022-09-20T15:19:30.143Z,96958.84
2022-09-20T15:21:56.314Z,96965.97
2022-09-20T15:24:22.194Z,96958.94
2022-09-20T15:26:48.216Z,96957.72
2022-09-20T15:29:16.593Z,96967.00
2022-09-20T15:31:44.168Z,96963.56
2022-09-20T15:34:11.907Z,96961.91
2022-09-20T15:36:39.697Z,96967.34
2022-09-20T15:39:05.684Z,96971.41
2022-09-20T15:41:32.135Z,96968.69
2022-09-20T15:43:58.905Z,96967.91
2022-09-20T15:46:28.005Z,96967.19
2022-09-20T15:48:55.567Z,96968.25
2022-09-20T15:51:21.740Z,96967.47
2022-09-20T15:53:56.006Z,96965.72
2022-09-20T15:56:23.140Z,96961.00
2022-09-20T15:59:03.414Z,96975.97
2022-09-20T16:01:38.875Z,96964.25
2022-09-20T16:04:09.202Z,96959.97
2022-09-20T16:06:36.641Z,96954.13
2022-09-20T16:09:03.705Z,96960.09
2022-09-20T16:11:30.246Z,96962.75
2022-09-20T16:13:58.041Z,96962.81
2022-09-20T16:16:26.115Z,96964.00
2022-09-20T16:19:11.330Z,96960.41
2022-09-20T16:21:40.575Z,96967.41
2022-09-20T16:24:06.954Z,96968.63
2022-09-20T16:26:33.811Z,96968.88
2022-09-20T16:29:01.760Z,96978.28
2022-09-20T16:31:29.773Z,96981.59
2022-09-20T16:33:56.436Z,96978.03
2022-09-20T16:36:27.280Z,96976.31
2022-09-20T16:38:54.597Z,96984.72
2022-09-20T16:41:22.332Z,96986.00
2022-09-20T16:43:51.420Z,96987.56
2022-09-20T16:46:26.432Z,96979.22
2022-09-20T16:48:56.307Z,96984.28
2022-09-20T16:51:29.084Z,96990.09
2022-09-20T16:53:55.321Z,96989.66
2022-09-20T16:56:25.908Z,96994.22
2022-09-20T16:58:52.959Z,96995.13
2022-09-20T17:01:18.984Z,96997.13
2022-09-20T17:03:46.328Z,97001.59
2022-09-20T17:06:13.669Z,97007.75
2022-09-20T17:08:40.354Z,97003.56
2022-09-20T17:11:13.382Z,97009.66
2022-09-20T17:13:40.740Z,96999.66
2022-09-20T17:16:11.909Z,97001.34
2022-09-20T17:18:41.188Z,97005.31
2022-09-20T17:21:09.645Z,96997.91
2022-09-20T17:23:35.884Z,97002.28
2022-09-20T17:26:14.233Z,97000.97
2022-09-20T17:28:48.551Z,97007.72
2022-09-20T17:31:17.051Z,97017.72
2022-09-20T17:33:44.349Z,97022.19
2022-09-20T17:36:18.221Z,97009.78
2022-09-20T17:38:45.687Z,97027.19
2022-09-20T17:41:15.251Z,97019.88
2022-09-20T17:43:42.634Z,97021.97
2022-09-20T17:46:20.974Z,97029.06
2022-09-20T17:48:49.780Z,97029.03
2022-09-20T17:51:17.861Z,97037.38
2022-09-20T17:53:44.462Z,97035.53
2022-09-20T17:56:12.098Z,97039.53
2022-09-20T17:58:39.066Z,97037.63
2022-09-20T18:01:13.567Z,97038.38
2022-09-20T18:03:45.685Z,97043.78
2022-09-20T18:06:11.586Z,97050.16
2022-09-20T18:08:37.550Z,97050.97
2022-09-20T18:11:04.078Z,97049.09
2022-09-20T18:13:30.236Z,97048.72
2022-09-20T18:15:56.204Z,97051.59
2022-09-20T18:18:22.169Z,97056.88
2022-09-20T18:20:48.260Z,97059.31
2022-09-20T18:23:14.330Z,97067.84
2022-09-20T18:25:58.429Z,97068.50
2022-09-20T18:28:24.248Z,97065.91
2022-09-20T18:31:03.275Z,97069.16
2022-09-20T18:33:30.076Z,97074.28
2022-09-20T18:36:04.616Z,97080.31
2022-09-20T18:38:32.375Z,97072.88
2022-09-20T18:40:59.799Z,97077.84
2022-09-20T18:43:30.258Z,97077.69
2022-09-20T18:45:56.877Z,97083.75
2022-09-20T18:48:24.404Z,97079.91
2022-09-20T18:51:01.434Z,97077.47
2022-09-20T18:53:32.504Z,97082.94
2022-09-20T18:56:13.134Z,97087.97
2022-09-20T18:58:39.392Z,97079.94
2022-09-20T19:01:25.033Z,97084.97
2022-09-20T19:04:09.449Z,97084.78
2022-09-20T19:06:43.333Z,97083.03
2022-09-20T19:09:23.492Z,97083.81
2022-09-20T19:12:03.451Z,97087.94
2022-09-20T19:14:51.613Z,97095.41
2022-09-20T19:17:25.641Z,97098.06
2022-09-20T19:20:03.318Z,97094.50
2022-09-20T19:22:40.306Z,97096.31
2022-09-20T19:25:28.301Z,97088.84
2022-09-20T19:27:54.238Z,97098.81
2022-09-20T19:30:20.526Z,97103.03
2022-09-20T19:32:46.949Z,97106.38
2022-09-20T19:35:20.379Z,97104.53
2022-09-20T19:38:04.997Z,97106.97
2022-09-20T19:41:10.150Z,97109.59
2022-09-20T19:43:54.641Z,97119.31
2022-09-20T19:46:32.393Z,97119.09
2022-09-20T19:49:36.771Z,97120.34
2022-09-20T19:52:03.885Z,97116.69
2022-09-20T19:54:30.691Z,97124.38
2022-09-20T19:56:58.710Z,97117.09
2022-09-20T19:59:26.601Z,97126.41
2022-09-20T20:01:53.593Z,97126.78
2022-09-20T20:04:20.580Z,97129.63
2022-09-20T20:07:13.401Z,97132.91
2022-09-20T20:10:03.269Z,97135.34
2022-09-20T20:12:49.435Z,97136.56
2022-09-20T20:15:30.481Z,97137.00
2022-09-20T20:18:16.817Z,97139.59
2022-09-20T20:20:49.101Z,97132.13
2022-09-20T20:23:40.115Z,97139.59
2022-09-20T20:26:07.706Z,97139.59
2022-09-20T20:28:34.067Z,97143.84
2022-09-20T20:31:03.180Z,97138.56
2022-09-20T20:33:30.044Z,97150.91
2022-09-20T20:35:58.191Z,97144.03
2022-09-20T20:38:27.686Z,97151.09
2022-09-20T20:40:58.224Z,97152.13
2022-09-20T20:43:24.256Z,97156.59
2022-09-20T20:45:50.415Z,97152.75
2022-09-20T20:48:16.461Z,97159.03
2022-09-20T20:50:42.227Z,97149.13
2022-09-20T20:53:08.020Z,97155.59
2022-09-20T20:55:33.850Z,97156.00
2022-09-20T20:57:59.699Z,97151.13
2022-09-20T21:00:26.820Z,97158.63
2022-09-20T21:02:57.796Z,97161.66
2022-09-20T21:05:24.505Z,97165.72
2022-09-20T21:07:51.772Z,97154.56
2022-09-20T21:10:17.779Z,97165.72
2022-09-20T21:12:43.729Z,97162.69
2022-09-20T21:15:09.699Z,97161.88
2022-09-20T21:17:36.389Z,97163.06
2022-09-20T21:20:06.690Z,97157.41
2022-09-20T21:22:33.072Z,97165.91
2022-09-20T21:24:58.885Z,97161.66
2022-09-20T21:27:25.358Z,97163.84
2022-09-20T21:29:51.140Z,97169.94
2022-09-20T21:32:17.175Z,97174.59
2022-09-20T21:34:42.940Z,97170.13
2022-09-20T21:37:10.534Z,97183.13
2022-09-20T21:39:36.506Z,97172.81
2022-09-20T21:42:05.875Z,97170.97
2022-09-20T21:44:31.733Z,97177.63
2022-09-20T21:46:57.480Z,97177.44
2022-09-20T21:49:23.396Z,97174.81
2022-09-20T21:51:51.340Z,97181.06
2022-09-20T21:54:17.091Z,97186.50
2022-09-20T21:56:43.038Z,97174.38
2022-09-20T21:59:09.229Z,97189.75
2022-09-20T22:01:37.040Z,97185.31
2022-09-20T22:04:06.463Z,97188.34
2022-09-20T22:06:35.605Z,97197.03
2022-09-20T22:09:04.468Z,97194.81
2022-09-20T22:11:38.158Z,97200.50
2022-09-20T22:14:05.536Z,97196.63
2022-09-20T22:16:33.749Z,97194.38
2022-09-20T22:18:59.931Z,97202.25
2022-09-20T22:21:28.138Z,97201.00
2022-09-20T22:23:56.932Z,97199.22
2022-09-20T22:26:25.095Z,97200.78
2022-09-20T22:28:51.245Z,97204.03
2022-09-20T22:31:19.878Z,97200.38
2022-09-20T22:33:49.247Z,97195.56
2022-09-20T22:36:17.714Z,97197.53
2022-09-20T22:38:44.122Z,97196.09
2022-09-20T22:41:11.229Z,97206.06
2022-09-20T22:43:37.624Z,97202.03
2022-09-20T22:46:18.536Z,97204.28
2022-09-20T22:48:45.467Z,97198.63
2022-09-20T22:51:22.606Z,97202.63
2022-09-20T22:53:49.188Z,97197.97
2022-09-20T22:56:20.392Z,97197.16
2022-09-20T22:58:48.798Z,97195.41
2022-09-20T23:01:16.357Z,97196.59
2022-09-20T23:03:44.673Z,97203.09
2022-09-20T23:06:13.418Z,97201.03
2022-09-20T23:08:39.234Z,97199.41
2022-09-20T23:11:05.631Z,97196.16
2022-09-20T23:13:32.180Z,97198.59
2022-09-20T23:15:58.452Z,97198.19
2022-09-20T23:18:24.795Z,97199.97
2022-09-20T23:21:11.137Z,97201.56
2022-09-20T23:23:37.190Z,97199.75
2022-09-20T23:26:08.088Z,97197.88
2022-09-20T23:28:35.842Z,97196.06
2022-09-20T23:31:09.707Z,97198.84
2022-09-20T23:33:36.167Z,97202.06
2022-09-20T23:36:07.577Z,97202.34
2022-09-20T23:38:33.590Z,97204.31
2022-09-20T23:41:07.559Z,97210.78
2022-09-20T23:43:34.680Z,97202.72
2022-09-20T23:46:01.558Z,97206.16
2022-09-20T23:48:27.823Z,97196.25
2022-09-20T23:50:54.185Z,97199.66
2022-09-20T23:53:20.439Z,97199.22
2022-09-20T23:55:46.366Z,97195.81
2022-09-20T23:58:12.127Z,97193.00
